createdAt,value
2019-05-20T00:02:23.093Z,23.21
2019-05-20T00:07:15.453Z,23.19
2019-05-20T00:12:19.640Z,23.19
2019-05-20T00:17:23.786Z,23.19
2019-05-20T00:22:27.896Z,23.17
2019-05-20T00:27:32.258Z,23.17
2019-05-20T00:32:41.320Z,23.16
2019-05-20T00:37:42.193Z,23.18
2019-05-20T00:42:46.450Z,23.15
2019-05-20T00:47:50.582Z,23.17
2019-05-20T00:52:54.842Z,23.19
2019-05-20T00:58:01.402Z,23.17
2019-05-20T01:03:05.748Z,23.18
2019-05-20T01:08:09.977Z,23.15
2019-05-20T01:13:14.306Z,23.11
2019-05-20T01:18:18.553Z,23.17
2019-05-20T01:23:22.819Z,23.15
2019-05-20T01:28:27.615Z,23.09
2019-05-20T01:33:31.726Z,23.05
2019-05-20T01:38:35.820Z,22.98
2019-05-20T01:43:39.893Z,22.98
2019-05-20T01:48:44.074Z,22.89
2019-05-20T01:53:48.104Z,22.89
2019-05-20T01:58:52.334Z,22.85
2019-05-20T02:03:56.677Z,22.85
2019-05-20T02:09:00.869Z,22.79
2019-05-20T02:14:08.905Z,22.64
2019-05-20T02:19:13.249Z,22.68
2019-05-20T02:24:17.513Z,22.64
2019-05-20T02:29:21.776Z,22.61
2019-05-20T02:34:25.943Z,22.59
2019-05-20T02:39:30.221Z,22.55
2019-05-20T02:44:34.767Z,22.56
2019-05-20T02:49:40.067Z,22.44
2019-05-20T02:54:44.187Z,22.51
2019-05-20T02:59:48.390Z,22.35
2019-05-20T03:04:52.428Z,22.05
2019-05-20T03:09:56.560Z,21.94
2019-05-20T03:15:00.948Z,21.90
2019-05-20T03:20:05.544Z,21.81
2019-05-20T03:25:09.888Z,21.76
2019-05-20T03:30:14.581Z,21.72
2019-05-20T03:35:18.831Z,21.67
2019-05-20T03:40:23.051Z,21.67
2019-05-20T03:45:27.358Z,21.57
2019-05-20T03:50:31.748Z,21.65
2019-05-20T03:55:36.028Z,21.60
2019-05-20T04:00:47.894Z,21.55
2019-05-20T04:05:52.360Z,21.55
2019-05-20T04:10:56.653Z,21.33
2019-05-20T04:16:01.032Z,21.42
2019-05-20T04:21:05.584Z,21.27
2019-05-20T04:26:09.986Z,21.20
2019-05-20T04:31:14.492Z,21.21
2019-05-20T04:36:18.842Z,21.08
2019-05-20T04:41:23.149Z,20.99
2019-05-20T04:46:27.493Z,20.99
2019-05-20T04:51:34.159Z,20.91
2019-05-20T04:56:38.319Z,21.32
2019-05-20T05:01:42.401Z,21.27
2019-05-20T05:06:46.556Z,21.27
2019-05-20T05:11:51.079Z,21.32
2019-05-20T05:16:55.388Z,21.31
2019-05-20T05:21:59.563Z,21.31
2019-05-20T05:27:03.773Z,21.31
2019-05-20T05:32:07.873Z,21.30
2019-05-20T05:37:12.017Z,21.22
2019-05-20T05:42:16.379Z,21.31
2019-05-20T05:47:20.556Z,21.33
2019-05-20T05:52:24.662Z,21.25
2019-05-20T05:57:28.725Z,21.34
2019-05-20T06:02:32.801Z,21.35
2019-05-20T06:07:36.902Z,21.29
2019-05-20T06:12:41.089Z,21.29
2019-05-20T06:17:45.283Z,21.39
2019-05-20T06:22:49.793Z,20.69
2019-05-20T06:27:53.909Z,20.69
2019-05-20T06:32:57.946Z,20.07
2019-05-20T06:38:03.700Z,20.02
2019-05-20T06:43:07.779Z,20.26
2019-05-20T06:48:11.898Z,20.26
2019-05-20T06:53:16.009Z,20.26
2019-05-20T06:58:20.022Z,20.07
2019-05-20T07:03:24.049Z,20.37
2019-05-20T07:08:28.086Z,20.31
2019-05-20T07:13:32.112Z,20.44
2019-05-20T07:18:36.237Z,20.49
2019-05-20T07:23:40.345Z,20.88
2019-05-20T07:28:44.558Z,20.95
2019-05-20T07:33:48.572Z,20.54
2019-05-20T07:38:52.613Z,20.75
2019-05-20T07:43:56.739Z,21.24
2019-05-20T07:49:01.618Z,20.94
2019-05-20T07:54:05.948Z,20.81
2019-05-20T07:59:13.019Z,20.81
2019-05-20T08:04:17.112Z,21.51
2019-05-20T08:09:21.195Z,21.60
2019-05-20T08:14:25.393Z,21.60
2019-05-20T08:19:29.543Z,21.61
2019-05-20T08:24:33.752Z,21.37
2019-05-20T08:29:37.858Z,21.47
2019-05-20T08:34:41.945Z,21.39
2019-05-20T08:39:46.242Z,21.39
2019-05-20T08:44:50.253Z,21.60
2019-05-20T08:49:54.609Z,21.53
2019-05-20T08:54:58.821Z,21.63
2019-05-20T09:00:03.393Z,21.64
2019-05-20T09:05:07.688Z,21.64
2019-05-20T09:10:11.962Z,21.52
2019-05-20T09:15:16.232Z,21.71
2019-05-20T09:20:20.561Z,21.71
2019-05-20T09:25:31.762Z,21.73
2019-05-20T09:30:35.881Z,21.81
2019-05-20T09:35:40.263Z,21.81
2019-05-20T09:40:47.189Z,21.78
2019-05-20T09:46:05.660Z,21.73
2019-05-20T09:50:57.477Z,21.77
2019-05-20T09:56:01.552Z,21.79
2019-05-20T10:01:05.732Z,21.85
2019-05-20T10:06:10.025Z,22.03
2019-05-20T10:11:14.188Z,22.08
2019-05-20T10:16:18.412Z,22.11
2019-05-20T10:21:22.604Z,22.07
2019-05-20T10:26:26.650Z,22.18
2019-05-20T10:31:30.827Z,22.11
2019-05-20T10:36:35.011Z,22.11
2019-05-20T10:41:39.146Z,22.24
2019-05-20T10:46:43.409Z,22.27
2019-05-20T10:51:47.500Z,22.29
2019-05-20T10:56:51.588Z,22.29
2019-05-20T11:01:55.629Z,22.23
2019-05-20T11:06:59.732Z,22.32
2019-05-20T11:12:03.890Z,22.34
2019-05-20T11:17:07.928Z,22.36
2019-05-20T11:22:11.949Z,22.35
2019-05-20T11:27:16.066Z,22.36
2019-05-20T11:32:20.098Z,22.37
2019-05-20T11:37:24.213Z,22.37
2019-05-20T11:42:28.415Z,22.37
2019-05-20T11:47:32.538Z,22.30
2019-05-20T11:52:36.632Z,22.31
2019-05-20T11:57:41.158Z,22.31
2019-05-20T12:02:45.267Z,22.31
2019-05-20T12:07:49.383Z,22.40
2019-05-20T12:12:53.503Z,22.39
2019-05-20T12:17:57.575Z,22.39
2019-05-20T12:23:01.628Z,22.39
2019-05-20T12:28:05.837Z,22.38
2019-05-20T12:33:18.454Z,22.39
2019-05-20T12:38:15.703Z,22.40
2019-05-20T12:43:19.779Z,22.40
2019-05-20T12:48:23.865Z,22.44
2019-05-20T12:53:27.906Z,22.43
2019-05-20T12:58:31.939Z,22.38
2019-05-20T13:03:35.967Z,22.46
2019-05-20T13:08:40.030Z,22.49
2019-05-20T13:13:44.144Z,22.50
2019-05-20T13:18:55.993Z,22.50
2019-05-20T13:23:54.414Z,22.56
2019-05-20T13:28:59.599Z,22.55
2019-05-20T13:34:04.067Z,22.55
2019-05-20T13:39:08.764Z,22.54
2019-05-20T13:44:12.912Z,22.53
2019-05-20T13:49:16.960Z,22.54
2019-05-20T13:54:21.178Z,22.54
2019-05-20T13:59:25.305Z,22.55
2019-05-20T14:04:29.368Z,22.59
2019-05-20T14:09:33.539Z,22.59
2019-05-20T14:14:37.777Z,22.63
2019-05-20T14:19:41.891Z,22.61
2019-05-20T14:24:46.066Z,22.63
2019-05-20T14:29:50.143Z,22.56
2019-05-20T14:34:54.208Z,22.58
2019-05-20T14:39:58.459Z,22.65
2019-05-20T14:45:02.756Z,22.63
2019-05-20T14:50:07.381Z,22.63
2019-05-20T14:55:11.670Z,22.68
2019-05-20T15:00:16.427Z,22.73
2019-05-20T15:05:20.546Z,22.73
2019-05-20T15:10:24.932Z,22.82
2019-05-20T15:15:29.056Z,22.73
2019-05-20T15:20:33.093Z,22.76
2019-05-20T15:25:37.352Z,22.76
2019-05-20T15:30:41.386Z,22.77
2019-05-20T15:35:45.443Z,22.75
2019-05-20T15:40:49.654Z,22.94
2019-05-20T15:45:53.774Z,22.85
2019-05-20T15:50:57.841Z,22.94
2019-05-20T15:56:01.992Z,22.93
2019-05-20T16:01:06.130Z,23.06
2019-05-20T16:12:40.428Z,23.05
2019-05-20T16:17:47.964Z,23.06
2019-05-20T16:22:50.644Z,23.08
2019-05-20T16:27:54.851Z,23.08
2019-05-20T16:32:59.059Z,23.08
2019-05-20T16:38:03.340Z,23.11
2019-05-20T16:43:07.565Z,23.12
2019-05-20T16:48:11.821Z,23.12
2019-05-20T16:53:16.098Z,23.13
2019-05-20T16:58:20.321Z,23.13
2019-05-20T17:03:24.550Z,23.08
2019-05-20T17:08:28.804Z,23.08
2019-05-20T17:13:33.054Z,23.09
2019-05-20T17:18:37.340Z,23.09
2019-05-20T17:23:41.489Z,23.10
2019-05-20T17:28:45.770Z,23.10
2019-05-20T17:33:49.990Z,23.12
2019-05-20T17:38:54.214Z,23.09
2019-05-20T17:43:58.379Z,23.12
2019-05-20T17:51:17.437Z,23.17
2019-05-20T18:01:15.203Z,23.14
2019-05-20T18:06:49.263Z,23.06
2019-05-20T18:12:05.991Z,23.14
2019-05-20T18:17:10.554Z,23.13
2019-05-20T18:22:15.329Z,23.15
2019-05-20T18:27:19.974Z,23.15
2019-05-20T18:32:24.639Z,23.13
2019-05-20T18:37:38.271Z,23.16
2019-05-20T18:43:11.233Z,23.16
2019-05-20T18:48:24.519Z,23.15
2019-05-20T18:53:39.445Z,23.16
2019-05-20T18:58:43.561Z,23.15
2019-05-20T19:03:47.832Z,23.14
2019-05-20T19:08:51.877Z,23.14
2019-05-20T19:13:56.641Z,23.33
2019-05-20T19:19:01.078Z,23.33
2019-05-20T19:24:05.431Z,23.28
2019-05-20T19:29:09.699Z,23.26
2019-05-20T19:34:14.269Z,23.30
2019-05-20T19:39:18.827Z,23.32
2019-05-20T19:44:31.199Z,23.32
2019-05-20T19:49:35.840Z,23.33
2019-05-20T19:54:40.261Z,23.30
2019-05-20T19:59:44.522Z,23.32
2019-05-20T20:04:49.033Z,23.31
2019-05-20T20:09:53.424Z,23.31
2019-05-20T20:14:57.575Z,23.31
2019-05-20T20:20:02.038Z,23.34
2019-05-20T20:25:07.199Z,23.34
2019-05-20T20:30:11.996Z,23.31
2019-05-20T20:35:16.503Z,23.32
2019-05-20T20:40:20.840Z,23.32
2019-05-20T20:45:25.275Z,23.33
2019-05-20T20:50:29.775Z,23.34
2019-05-20T20:55:34.300Z,23.33
2019-05-20T21:00:38.619Z,23.32
2019-05-20T21:05:43.009Z,23.26
2019-05-20T21:10:47.462Z,23.34
2019-05-20T21:15:58.664Z,23.40
2019-05-20T21:21:07.428Z,23.35
2019-05-20T21:26:11.559Z,23.41
2019-05-20T21:31:15.625Z,23.43
2019-05-20T21:36:19.659Z,23.44
2019-05-20T21:41:23.672Z,23.44
2019-05-20T21:46:27.722Z,23.46
2019-05-20T21:51:31.735Z,23.46
2019-05-20T21:56:35.780Z,23.47
2019-05-20T22:01:39.968Z,23.46
2019-05-20T22:06:44.139Z,23.48
2019-05-20T22:11:48.254Z,23.50
2019-05-20T22:16:52.482Z,23.49
2019-05-20T22:22:02.583Z,23.49
2019-05-20T22:27:06.822Z,23.48
2019-05-20T22:32:10.896Z,23.42
2019-05-20T22:37:15.068Z,23.49
2019-05-20T22:42:19.206Z,23.49
2019-05-20T22:47:23.252Z,23.48
2019-05-20T22:52:27.305Z,23.48
2019-05-20T22:57:31.434Z,23.49
2019-05-20T23:02:35.539Z,23.51
2019-05-20T23:07:39.669Z,23.51
2019-05-20T23:12:43.722Z,23.53
2019-05-20T23:17:47.930Z,23.45
2019-05-20T23:22:52.096Z,23.45
2019-05-20T23:27:56.260Z,23.42
2019-05-20T23:33:00.393Z,23.42
2019-05-20T23:38:04.558Z,23.44
2019-05-20T23:43:08.684Z,23.36
2019-05-20T23:48:12.868Z,23.44
2019-05-20T23:53:17.072Z,23.42
2019-05-20T23:58:21.289Z,23.43
